Time;durP1;ratioP1;P1;durP2;ratioP2;P2;SDS_P1;SDS_P2;PMS_P1;PMS_P2;Temp;Humidity;BMP_temperature;BMP_pressure;BME280_temperature;BME280_humidity;BME280_pressure;Samples;Min_cycle;Max_cycle;Signal;HPM_P1;HPM_P2
2022/09/28 00:01:07;;;;;;;8.75;4.43;;;14.30;99.90;;;;;;5096042;28;20458;-76
2022/09/28 00:03:35;;;;;;;6.93;4.63;;;14.20;99.90;;;;;;5115933;28;20123;-76
2022/09/28 00:06:03;;;;;;;5.93;2.20;;;14.20;99.90;;;;;;5115888;28;20402;-76
2022/09/28 00:08:31;;;;;;;5.13;1.23;;;14.10;99.90;;;;;;5095284;28;20036;-76
2022/09/28 00:10:59;;;;;;;4.97;2.10;;;14.10;99.90;;;;;;5095432;28;20044;-75
2022/09/28 00:13:28;;;;;;;4.55;1.80;;;14.10;99.90;;;;;;5094329;28;20130;-75
2022/09/28 00:16:06;;;;;;;5.65;1.95;;;14.10;99.90;;;;;;5093966;28;20445;-76
2022/09/28 00:18:34;;;;;;;5.35;1.50;;;14.00;99.90;;;;;;5095633;28;20032;-76
2022/09/28 00:21:04;;;;;;;3.13;1.42;;;14.00;99.90;;;;;;5095130;28;20551;-76
2022/09/28 00:23:31;;;;;;;3.75;1.88;;;14.00;99.90;;;;;;5095090;28;20044;-75
2022/09/28 00:26:04;;;;;;;3.72;1.40;;;14.00;99.90;;;;;;5095393;28;20052;-75
2022/09/28 00:28:31;;;;;;;4.70;1.58;;;14.00;99.90;;;;;;5095445;28;20060;-76
2022/09/28 00:30:59;;;;;;;10.23;2.72;;;14.00;99.90;;;;;;5107400;28;20066;-76
2022/09/28 00:33:26;;;;;;;4.97;1.58;;;14.00;99.90;;;;;;5115380;28;20067;-76
2022/09/28 00:35:58;;;;;;;6.57;2.10;;;13.90;99.90;;;;;;5114447;28;20097;-76
2022/09/28 00:38:27;;;;;;;2.88;1.70;;;13.90;99.90;;;;;;5116045;28;20384;-75
2022/09/28 00:40:55;;;;;;;2.45;1.50;;;13.90;99.90;;;;;;5114674;28;20046;-75
2022/09/28 00:43:25;;;;;;;2.60;1.60;;;13.90;99.90;;;;;;5113665;28;20456;-75
2022/09/28 00:45:58;;;;;;;2.95;1.63;;;13.80;99.90;;;;;;5109031;28;20135;-75
2022/09/28 00:48:31;;;;;;;3.55;1.50;;;13.70;99.90;;;;;;5121303;27;20040;-75
2022/09/28 00:51:01;;;;;;;4.47;1.40;;;13.70;99.90;;;;;;5126541;27;20039;-75
2022/09/28 00:53:33;;;;;;;2.97;1.52;;;13.70;99.90;;;;;;5113631;28;20158;-75
2022/09/28 00:56:03;;;;;;;5.10;1.60;;;13.60;99.90;;;;;;5113326;28;20456;-75
2022/09/28 00:58:34;;;;;;;5.57;1.88;;;13.60;99.90;;;;;;5117027;28;20529;-75
2022/09/28 01:01:02;;;;;;;4.30;2.28;;;13.60;99.90;;;;;;5117378;28;20548;-75
2022/09/28 01:03:30;;;;;;;3.40;2.00;;;13.50;99.90;;;;;;5119000;28;20392;-75
2022/09/28 01:06:00;;;;;;;2.95;1.48;;;13.50;99.90;;;;;;5118411;28;20054;-76
2022/09/28 01:08:29;;;;;;;3.63;1.52;;;13.50;99.90;;;;;;5098545;28;20058;-75
2022/09/28 01:10:59;;;;;;;2.85;1.30;;;13.50;99.90;;;;;;5075934;28;20071;-75
2022/09/28 01:13:30;;;;;;;2.38;1.70;;;13.50;99.90;;;;;;5092826;28;20054;-75
2022/09/28 01:16:11;;;;;;;6.50;1.88;;;13.50;99.90;;;;;;5092997;28;20048;-75
2022/09/28 01:18:53;;;;;;;2.50;1.60;;;13.50;99.90;;;;;;5092831;28;20507;-75
2022/09/28 01:21:22;;;;;;;5.32;1.45;;;13.50;99.90;;;;;;5092994;28;20503;-75
2022/09/28 01:24:25;;;;;;;5.28;1.88;;;13.60;99.90;;;;;;5092715;28;20052;-75
2022/09/28 01:27:00;;;;;;;3.00;1.00;;;13.50;99.90;;;;;;5075873;28;20105;-76
2022/09/28 01:29:43;;;;;;;3.00;0.80;;;13.40;99.90;;;;;;5092593;28;20143;-75
2022/09/28 01:32:32;;;;;;;2.65;0.70;;;13.40;99.90;;;;;;5094805;28;20044;-75
2022/09/28 01:35:03;;;;;;;2.83;0.82;;;13.40;99.90;;;;;;5114496;28;20043;-75
2022/09/28 01:37:38;;;;;;;3.92;0.88;;;13.40;99.90;;;;;;5113117;28;20453;-75
2022/09/28 01:40:09;;;;;;;1.33;0.75;;;13.40;99.90;;;;;;5096186;28;20051;-75
2022/09/28 01:42:40;;;;;;;2.05;0.70;;;13.40;99.90;;;;;;5113056;28;20096;-75
2022/09/28 01:45:14;;;;;;;1.52;0.70;;;13.40;99.90;;;;;;5095969;28;20056;-75
2022/09/28 01:47:45;;;;;;;1.77;0.75;;;13.40;99.90;;;;;;5111747;28;20151;-75
2022/09/28 01:50:17;;;;;;;3.30;1.10;;;13.40;99.90;;;;;;5112927;28;20143;-75
2022/09/28 01:52:51;;;;;;;2.60;1.08;;;13.40;99.90;;;;;;5096302;28;20398;-75
2022/09/28 01:55:28;;;;;;;2.92;1.30;;;13.40;99.90;;;;;;5112404;28;20047;-75
2022/09/28 01:58:02;;;;;;;5.25;1.55;;;13.40;99.90;;;;;;5112716;28;20043;-75
2022/09/28 02:00:29;;;;;;;5.18;1.33;;;13.40;99.90;;;;;;5095377;28;20456;-75
2022/09/28 02:03:05;;;;;;;3.63;1.40;;;13.40;99.90;;;;;;5110809;28;20051;-76
2022/09/28 02:05:46;;;;;;;3.28;1.40;;;13.40;99.90;;;;;;5094119;28;20105;-75
2022/09/28 02:08:20;;;;;;;2.97;1.50;;;13.40;99.90;;;;;;5113830;28;20043;-75
2022/09/28 02:10:58;;;;;;;3.80;1.52;;;13.40;99.90;;;;;;5112399;28;20039;-75
2022/09/28 02:13:32;;;;;;;2.75;1.05;;;13.40;99.90;;;;;;5095405;28;20044;-75
2022/09/28 02:16:05;;;;;;;3.97;1.42;;;13.40;99.90;;;;;;5112597;28;20043;-75
2022/09/28 02:18:33;;;;;;;4.68;1.60;;;13.40;99.90;;;;;;5112429;28;20419;-75
2022/09/28 02:21:06;;;;;;;4.15;1.75;;;13.40;99.90;;;;;;5098733;28;20043;-75
2022/09/28 02:23:35;;;;;;;7.00;1.90;;;13.40;99.90;;;;;;5092178;28;20070;-75
2022/09/28 02:26:08;;;;;;;5.15;1.60;;;13.40;99.90;;;;;;5092107;28;20052;-75
2022/09/28 02:28:38;;;;;;;5.38;1.55;;;13.30;99.90;;;;;;5092046;28;20044;-75
2022/09/28 02:31:05;;;;;;;2.60;1.60;;;13.30;99.90;;;;;;5075804;28;20557;-75
2022/09/28 02:33:38;;;;;;;3.53;1.52;;;13.30;99.90;;;;;;5092178;28;20134;-75
2022/09/28 02:36:07;;;;;;;3.92;1.42;;;13.30;99.90;;;;;;5075654;28;20041;-75
2022/09/28 02:38:39;;;;;;;4.03;0.90;;;13.20;99.90;;;;;;5075314;28;20044;-75
2022/09/28 02:41:15;;;;;;;4.35;1.20;;;13.20;99.90;;;;;;5091768;28;20044;-75
2022/09/28 02:43:50;;;;;;;;;;;13.20;99.90;;;;;;5092470;28;20514;-75
2022/09/28 02:46:27;;;;;;;2.53;1.00;;;13.20;99.90;;;;;;5083257;28;19930;-75
2022/09/28 02:49:12;;;;;;;1.58;1.10;;;13.20;99.90;;;;;;5075099;28;20082;-75
2022/09/28 02:51:49;;;;;;;2.50;1.33;;;13.20;99.90;;;;;;5093679;28;20039;-75
2022/09/28 02:54:45;;;;;;;5.22;1.70;;;13.20;99.90;;;;;;5091298;28;20047;-75
2022/09/28 02:57:24;;;;;;;2.80;1.40;;;13.30;99.90;;;;;;5079325;28;20422;-75
2022/09/28 03:00:06;;;;;;;2.42;1.23;;;13.30;99.90;;;;;;5095689;28;20048;-74
2022/09/28 03:02:40;;;;;;;3.80;1.50;;;13.30;99.90;;;;;;5095332;28;20048;-74
2022/09/28 03:05:17;;;;;;;3.00;1.25;;;13.20;99.90;;;;;;5079019;28;20059;-74
2022/09/28 03:07:57;;;;;;;5.60;1.05;;;13.20;99.90;;;;;;5078662;28;20527;-74
2022/09/28 03:10:33;;;;;;;3.17;1.60;;;13.20;99.90;;;;;;5076259;28;20048;-75
2022/09/28 03:13:01;;;;;;;2.80;1.55;;;13.20;99.90;;;;;;5059733;28;20404;-75
2022/09/28 03:15:32;;;;;;;2.95;1.50;;;13.20;99.90;;;;;;5058619;28;20048;-75
2022/09/28 03:18:01;;;;;;;3.20;1.58;;;13.10;99.90;;;;;;5058611;28;20051;-75
2022/09/28 03:20:32;;;;;;;8.77;2.35;;;13.10;99.90;;;;;;5091956;28;20531;-75
2022/09/28 03:23:00;;;;;;;3.20;1.90;;;13.10;99.90;;;;;;5058027;28;20045;-75
2022/09/28 03:25:28;;;;;;;6.65;2.10;;;13.00;99.90;;;;;;5058204;28;20051;-75
2022/09/28 03:27:55;;;;;;;3.75;2.05;;;13.00;99.90;;;;;;5091485;28;20057;-75
2022/09/28 03:30:23;;;;;;;5.18;1.55;;;13.00;99.90;;;;;;5058030;28;20048;-75
2022/09/28 03:32:59;;;;;;;4.85;2.20;;;13.00;99.90;;;;;;5057807;28;20052;-75
2022/09/28 03:35:28;;;;;;;3.83;1.90;;;13.10;99.90;;;;;;5057915;28;20093;-75
2022/09/28 03:37:56;;;;;;;3.83;2.53;;;13.00;99.90;;;;;;5076206;28;20060;-75
2022/09/28 03:40:25;;;;;;;3.17;1.77;;;13.00;99.90;;;;;;5057639;28;20048;-75
2022/09/28 03:42:53;;;;;;;3.85;1.95;;;13.00;99.90;;;;;;5074171;28;20089;-75
2022/09/28 03:45:21;;;;;;;3.20;1.85;;;13.00;99.90;;;;;;5094668;28;20044;-75
2022/09/28 03:47:51;;;;;;;3.30;1.67;;;12.90;99.90;;;;;;5058878;28;20076;-75
2022/09/28 03:50:20;;;;;;;3.10;1.92;;;12.90;99.90;;;;;;5091472;28;20135;-75
2022/09/28 03:52:48;;;;;;;6.40;2.22;;;12.90;99.90;;;;;;5090883;28;20055;-75
2022/09/28 03:55:16;;;;;;;2.35;1.50;;;13.00;99.90;;;;;;5090878;28;20052;-75
2022/09/28 03:57:44;;;;;;;3.28;1.48;;;13.00;99.90;;;;;;5057451;28;20571;-74
2022/09/28 04:00:13;;;;;;;3.22;1.85;;;12.90;99.90;;;;;;5057544;28;20032;-75
2022/09/28 04:02:43;;;;;;;3.58;2.35;;;12.90;99.90;;;;;;5089867;28;20113;-76
2022/09/28 04:05:11;;;;;;;3.17;1.73;;;12.90;99.90;;;;;;5077145;28;20044;-76
2022/09/28 04:07:39;;;;;;;3.08;1.65;;;13.00;99.90;;;;;;5087192;28;20101;-76
2022/09/28 04:10:08;;;;;;;2.20;1.38;;;13.00;99.90;;;;;;5096950;28;20092;-76
2022/09/28 04:12:35;;;;;;;7.00;1.67;;;13.00;99.90;;;;;;5092282;28;20085;-76
2022/09/28 04:15:05;;;;;;;4.97;1.73;;;13.00;99.90;;;;;;5114072;27;20046;-76
2022/09/28 04:17:33;;;;;;;3.45;1.63;;;12.90;99.90;;;;;;5094967;28;20409;-76
2022/09/28 04:20:02;;;;;;;8.25;1.90;;;12.90;99.90;;;;;;5097828;28;20091;-76
2022/09/28 04:22:49;;;;;;;3.15;1.67;;;12.90;99.90;;;;;;5093603;28;20569;-76
2022/09/28 04:25:17;;;;;;;3.63;1.88;;;12.80;99.90;;;;;;5102119;28;20039;-75
2022/09/28 04:30:30;;;;;;;3.55;2.17;;;12.80;99.90;;;;;;5108761;27;20104;-75
2022/09/28 04:32:57;;;;;;;6.45;2.42;;;12.70;99.90;;;;;;5105962;28;20039;-75
2022/09/28 04:35:28;;;;;;;6.35;2.40;;;12.70;99.90;;;;;;5129024;27;20394;-75
2022/09/28 04:37:57;;;;;;;5.75;3.25;;;12.70;99.90;;;;;;5122828;27;20047;-75
2022/09/28 04:40:24;;;;;;;5.97;3.40;;;12.70;99.90;;;;;;5106209;28;20527;-76
2022/09/28 04:42:56;;;;;;;10.50;5.97;;;12.70;99.90;;;;;;5105430;28;20101;-76
2022/09/28 04:45:25;;;;;;;13.07;6.57;;;12.70;99.90;;;;;;5115522;27;20044;-76
2022/09/28 04:47:55;;;;;;;11.07;6.07;;;12.70;99.90;;;;;;5090506;28;20046;-76
2022/09/28 04:50:30;;;;;;;11.10;7.70;;;12.60;99.90;;;;;;5114309;28;20067;-76
2022/09/28 04:53:15;;;;;;;9.52;7.57;;;12.60;99.90;;;;;;5114040;28;20071;-76
2022/09/28 04:55:43;;;;;;;11.63;7.32;;;12.60;99.90;;;;;;5118354;27;20388;-75
2022/09/28 04:58:10;;;;;;;9.27;7.05;;;12.60;99.90;;;;;;5113767;28;20051;-76
2022/09/28 05:00:38;;;;;;;14.25;8.95;;;12.60;99.90;;;;;;5111940;28;20036;-75
2022/09/28 05:03:41;;;;;;;91.15;21.10;;;12.60;99.90;;;;;;5072048;28;20131;-77
2022/09/28 05:06:37;;;;;;;84.20;22.73;;;12.60;99.90;;;;;;5090751;28;20048;-78
2022/09/28 05:09:09;;;;;;;39.88;21.75;;;12.60;99.90;;;;;;5113234;28;20043;-76
2022/09/28 05:11:36;;;;;;;24.08;15.25;;;12.60;99.90;;;;;;5122937;27;20043;-76
2022/09/28 05:14:07;;;;;;;20.73;11.65;;;12.60;99.90;;;;;;5111868;27;20039;-77
2022/09/28 05:16:34;;;;;;;18.83;9.48;;;12.60;99.90;;;;;;5114062;28;20036;-76
2022/09/28 05:19:21;;;;;;;16.20;10.50;;;12.60;99.90;;;;;;5114100;28;20445;-76
2022/09/28 05:21:49;;;;;;;39.78;15.57;;;12.60;99.90;;;;;;5112265;28;20054;-76
2022/09/28 05:24:18;;;;;;;23.50;12.90;;;12.70;99.90;;;;;;5130460;27;20051;-77
2022/09/28 05:26:50;;;;;;;23.38;14.05;;;12.60;99.90;;;;;;5130418;27;20108;-77
2022/09/28 05:29:19;;;;;;;17.25;11.07;;;12.60;99.90;;;;;;5106072;27;20048;-77
2022/09/28 05:31:49;;;;;;;13.55;9.20;;;12.60;99.90;;;;;;5104463;28;20047;-76
2022/09/28 05:34:34;;;;;;;17.60;9.27;;;12.60;99.90;;;;;;5110703;28;20040;-76
2022/09/28 05:37:02;;;;;;;10.98;8.07;;;12.70;99.90;;;;;;5119326;27;20101;-76
2022/09/28 05:39:32;;;;;;;11.50;7.35;;;12.70;99.90;;;;;;5096485;28;20048;-76
2022/09/28 05:42:02;;;;;;;11.23;7.50;;;12.70;99.90;;;;;;5113506;28;20418;-77
2022/09/28 05:44:30;;;;;;;12.90;7.88;;;12.90;99.90;;;;;;5088308;28;20410;-76
2022/09/28 05:47:03;;;;;;;11.60;8.40;;;12.90;99.90;;;;;;5108657;28;20130;-76
2022/09/28 05:49:31;;;;;;;10.90;7.50;;;12.70;99.90;;;;;;5082052;28;20503;-76
2022/09/28 05:52:00;;;;;;;13.65;8.88;;;12.70;99.90;;;;;;5075700;28;20399;-77
2022/09/28 05:54:28;;;;;;;14.23;10.45;;;12.70;99.90;;;;;;5076351;28;20384;-76
2022/09/28 05:56:58;;;;;;;10.43;8.40;;;12.80;99.90;;;;;;5098960;28;20126;-77
2022/09/28 05:59:29;;;;;;;8.35;6.63;;;12.80;99.90;;;;;;5114167;28;20055;-75
2022/09/28 06:01:56;;;;;;;10.38;8.52;;;12.90;99.90;;;;;;5113632;28;20040;-75
2022/09/28 06:04:23;;;;;;;14.73;10.10;;;12.90;99.90;;;;;;5106196;27;20048;-76
2022/09/28 06:06:52;;;;;;;13.63;7.47;;;12.90;99.90;;;;;;5108524;27;20053;-76
2022/09/28 06:09:22;;;;;;;8.07;6.30;;;13.00;99.90;;;;;;5122995;27;20039;-75
2022/09/28 06:12:09;;;;;;;8.27;5.15;;;13.10;99.90;;;;;;5093982;28;20067;-76
2022/09/28 06:14:44;;;;;;;;;;;13.20;99.90;;;;;;5092652;28;20055;-76
2022/09/28 06:17:12;;;;;;;10.57;4.43;;;13.30;99.90;;;;;;5117532;28;19959;-76
2022/09/28 06:19:39;;;;;;;12.48;5.38;;;13.30;99.90;;;;;;5108187;28;20225;-75
2022/09/28 06:22:25;;;;;;;7.43;4.75;;;13.40;99.90;;;;;;5086442;28;20252;-75
2022/09/28 06:25:03;;;;;;;10.57;5.45;;;13.40;99.90;;;;;;5100247;28;20047;-76
2022/09/28 06:27:32;;;;;;;9.15;6.45;;;13.50;99.90;;;;;;5098876;28;20387;-77
2022/09/28 06:30:01;;;;;;;13.27;5.00;;;13.70;99.90;;;;;;5093857;28;20051;-76
2022/09/28 06:32:29;;;;;;;11.30;6.70;;;13.80;99.90;;;;;;5100684;28;20051;-75
2022/09/28 06:34:57;;;;;;;9.82;6.07;;;14.00;99.90;;;;;;5098475;28;20134;-76
2022/09/28 06:37:27;;;;;;;9.50;6.75;;;14.40;99.90;;;;;;5116062;28;20039;-76
2022/09/28 06:39:56;;;;;;;11.40;8.23;;;14.60;99.90;;;;;;5098963;28;20047;-76
2022/09/28 06:42:23;;;;;;;11.05;7.30;;;14.80;99.90;;;;;;5115935;28;20511;-76
2022/09/28 06:45:11;;;;;;;10.40;6.80;;;15.10;99.90;;;;;;5117945;28;20120;-76
2022/09/28 06:48:00;;;;;;;9.65;6.72;;;15.20;99.90;;;;;;5102873;28;20052;-76
2022/09/28 06:50:37;;;;;;;13.95;7.75;;;15.20;99.90;;;;;;5116016;28;20093;-77
2022/09/28 06:53:27;;;;;;;22.48;17.05;;;15.00;99.90;;;;;;5115854;28;20070;-76
2022/09/28 06:55:59;;;;;;;15.20;10.63;;;14.90;99.90;;;;;;5115819;28;20048;-76
2022/09/28 06:58:27;;;;;;;9.35;6.40;;;14.80;99.90;;;;;;5116450;28;20118;-76
2022/09/28 07:00:58;;;;;;;10.57;7.00;;;14.80;99.90;;;;;;5115768;28;20050;-76
2022/09/28 07:03:27;;;;;;;7.18;5.70;;;14.60;99.90;;;;;;5115682;28;20052;-76
2022/09/28 07:06:22;;;;;;;10.18;6.10;;;14.60;99.90;;;;;;5099040;28;20160;-76
2022/09/28 07:09:08;;;;;;;9.02;6.85;;;14.60;99.90;;;;;;5114099;28;20043;-76
2022/09/28 07:11:44;;;;;;;10.07;6.40;;;14.60;99.90;;;;;;5096262;28;20039;-76
2022/09/28 07:14:33;;;;;;;8.90;5.80;;;14.70;99.90;;;;;;5116301;28;20390;-75
2022/09/28 07:17:02;;;;;;;6.13;5.18;;;14.80;99.90;;;;;;5132820;27;20064;-76
2022/09/28 07:19:29;;;;;;;9.48;7.07;;;14.90;99.90;;;;;;5115527;28;20107;-76
2022/09/28 07:21:57;;;;;;;8.27;5.80;;;15.00;99.90;;;;;;5116572;28;20039;-76
2022/09/28 07:24:24;;;;;;;7.50;6.15;;;15.30;99.90;;;;;;5115373;28;20126;-76
2022/09/28 07:27:10;;;;;;;5.22;3.70;;;15.40;99.90;;;;;;5117002;28;20053;-76
2022/09/28 07:29:55;;;;;;;7.43;4.53;;;15.50;99.90;;;;;;5115779;28;20096;-76
2022/09/28 07:32:36;;;;;;;7.47;4.40;;;15.30;99.90;;;;;;5115186;28;20515;-75
2022/09/28 07:35:22;;;;;;;6.47;3.92;;;15.40;99.90;;;;;;5116813;28;20414;-76
2022/09/28 07:37:59;;;;;;;7.00;3.78;;;15.60;99.90;;;;;;5115164;28;20138;-76
2022/09/28 07:43:12;;;;;;;7.18;3.55;;;15.80;99.90;;;;;;5131870;27;20093;-76
2022/09/28 07:45:39;;;;;;;5.00;3.65;;;16.00;99.90;;;;;;5114140;28;20055;-77
2022/09/28 07:48:09;;;;;;;5.30;3.40;;;16.40;99.90;;;;;;5114766;28;20127;-76
2022/09/28 07:50:58;;;;;;;4.65;2.97;;;16.50;99.90;;;;;;5114998;28;20409;-76
2022/09/28 07:53:44;;;;;;;3.78;2.45;;;16.50;99.90;;;;;;5116369;28;20059;-76
2022/09/28 07:56:30;;;;;;;6.57;3.30;;;16.50;99.90;;;;;;5115955;28;20049;-76
2022/09/28 07:59:04;;;;;;;5.72;3.38;;;16.70;99.90;;;;;;5131842;27;20047;-76
2022/09/28 08:02:01;;;;;;;15.30;11.68;;;16.80;99.90;;;;;;5101734;28;20047;-76
2022/09/28 08:04:30;;;;;;;6.28;3.65;;;16.60;99.90;;;;;;5114596;28;20135;-76
2022/09/28 08:06:59;;;;;;;5.90;3.25;;;16.70;99.90;;;;;;5129296;27;20052;-76
2022/09/28 08:09:27;;;;;;;6.57;3.20;;;16.80;99.90;;;;;;5095959;28;20053;-75
2022/09/28 08:12:14;;;;;;;10.38;4.03;;;16.70;99.90;;;;;;5104282;28;20051;-76
2022/09/28 08:14:46;;;;;;;9.48;4.50;;;16.90;99.90;;;;;;5086802;28;20062;-76
2022/09/28 08:17:29;;;;;;;8.30;5.05;;;17.00;99.90;;;;;;5077250;28;20051;-76
2022/09/28 08:22:46;;;;;;;8.68;5.05;;;17.30;99.90;;;;;;5106495;28;20556;-76
2022/09/28 08:25:14;;;;;;;11.45;5.43;;;17.50;99.90;;;;;;5114266;28;20384;-76
2022/09/28 08:27:41;;;;;;;8.32;5.25;;;17.60;99.90;;;;;;5097404;28;20036;-76
2022/09/28 08:30:10;;;;;;;6.85;5.10;;;17.70;99.90;;;;;;5087877;28;20143;-75
2022/09/28 08:32:48;;;;;;;9.15;5.38;;;17.70;99.90;;;;;;5092798;28;20505;-76
2022/09/28 08:35:35;;;;;;;8.20;5.43;;;17.70;99.90;;;;;;5095334;28;20126;-76
2022/09/28 08:38:32;;;;;;;8.75;5.85;;;17.70;99.90;;;;;;5080668;28;20052;-76
2022/09/28 08:41:24;;;;;;;8.75;6.20;;;17.80;99.90;;;;;;5099009;28;20042;-75
2022/09/28 08:44:22;;;;;;;9.48;6.63;;;17.90;99.90;;;;;;5096483;28;20178;-75
2022/09/28 08:48:42;;;;;;;8.38;5.13;;;18.10;99.90;;;;;;5105072;28;20156;-76
2022/09/28 08:50:26;;;;;;;6.35;5.00;;;18.10;99.90;;;;;;5099159;28;20085;-76
2022/09/28 08:53:35;;;;;;;7.95;5.25;;;17.90;99.90;;;;;;5054961;28;20509;-75
2022/09/28 08:56:26;;;;;;;8.68;5.45;;;18.10;99.90;;;;;;5091173;28;20047;-75
2022/09/28 08:58:59;;;;;;;6.82;5.07;;;18.10;99.90;;;;;;5094906;28;20521;-75
2022/09/28 09:01:32;;;;;;;6.85;5.13;;;18.20;99.90;;;;;;5091127;28;20058;-75
2022/09/28 09:04:03;;;;;;;8.07;4.97;;;18.00;99.90;;;;;;5095944;28;20085;-75
2022/09/28 09:07:11;;;;;;;7.72;5.43;;;18.10;99.90;;;;;;5113877;28;20040;-74
2022/09/28 09:09:56;;;;;;;12.45;7.30;;;18.20;99.90;;;;;;5096606;28;20078;-76
2022/09/28 09:12:32;;;;;;;7.43;5.53;;;18.40;99.90;;;;;;5114505;28;20108;-75
2022/09/28 09:15:20;;;;;;;;;;;18.60;99.90;;;;;;5113862;28;20050;-75
2022/09/28 09:17:58;;;;;;;6.65;5.10;;;18.60;99.90;;;;;;5095513;28;20336;-75
2022/09/28 09:20:39;;;;;;;8.85;4.45;;;18.70;99.90;;;;;;5096044;28;20150;-75
2022/09/28 09:23:19;;;;;;;6.55;4.10;;;18.80;99.90;;;;;;5112947;28;20036;-74
2022/09/28 09:25:53;;;;;;;5.30;3.60;;;18.90;99.90;;;;;;5087938;28;20055;-76
2022/09/28 09:28:40;;;;;;;;;;;18.80;99.90;;;;;;5114615;28;20046;-75
2022/09/28 09:31:19;;;;;;;5.97;4.00;;;18.80;99.90;;;;;;5096147;28;19969;-76
2022/09/28 09:34:22;;;;;;;6.78;4.05;;;19.00;99.90;;;;;;5094182;28;20093;-75
2022/09/28 09:37:05;;;;;;;7.57;4.95;;;19.10;99.90;;;;;;5092556;28;20051;-75
2022/09/28 09:40:29;;;;;;;9.10;4.63;;;19.00;99.90;;;;;;5027906;28;20062;-75
2022/09/28 09:43:49;;;;;;;8.77;5.32;;;19.00;99.90;;;;;;5024416;28;20409;-76
2022/09/28 09:46:47;;;;;;;6.80;4.93;;;19.20;99.90;;;;;;5106352;28;20048;-75
2022/09/28 09:49:43;;;;;;;8.85;5.00;;;19.30;99.90;;;;;;5108553;28;20040;-76
2022/09/28 09:52:18;;;;;;;5.93;4.85;;;19.50;99.90;;;;;;5090567;28;20356;-75
2022/09/28 09:54:51;;;;;;;5.38;3.58;;;19.70;99.90;;;;;;5108227;27;20040;-74
2022/09/28 09:57:54;;;;;;;7.25;3.50;;;19.60;99.90;;;;;;5083374;28;20044;-74
2022/09/28 10:00:57;;;;;;;7.55;4.43;;;19.60;99.90;;;;;;5073914;28;20048;-73
2022/09/28 10:03:48;;;;;;;5.97;3.67;;;19.60;99.90;;;;;;5093030;28;20529;-72
2022/09/28 10:06:22;;;;;;;11.00;6.90;;;19.60;99.90;;;;;;5110115;28;20089;-73
2022/09/28 10:08:58;;;;;;;5.68;3.60;;;19.70;99.90;;;;;;5092293;28;20048;-72
2022/09/28 10:11:31;;;;;;;13.68;4.75;;;19.80;99.90;;;;;;5086198;28;20130;-73
2022/09/28 10:14:00;;;;;;;6.28;3.45;;;19.80;99.90;;;;;;5081407;28;20040;-73
2022/09/28 10:16:48;;;;;;;5.17;3.13;;;19.80;99.90;;;;;;5113497;28;20522;-72
2022/09/28 10:19:31;;;;;;;7.43;3.58;;;19.80;99.90;;;;;;5110491;28;20093;-73
2022/09/28 10:22:22;;;;;;;13.70;5.80;;;19.70;99.90;;;;;;5107867;28;20043;-73
2022/09/28 10:24:57;;;;;;;15.52;4.55;;;19.90;99.90;;;;;;5112801;28;20047;-72
2022/09/28 10:27:27;;;;;;;10.38;5.13;;;20.00;99.90;;;;;;5083872;28;20052;-72
2022/09/28 10:29:59;;;;;;;9.65;4.00;;;20.10;99.90;;;;;;5077051;28;20044;-72
2022/09/28 10:32:38;;;;;;;6.68;3.83;;;20.00;99.90;;;;;;5096483;28;20063;-72
2022/09/28 10:35:21;;;;;;;10.63;4.63;;;20.00;99.90;;;;;;5095700;28;20407;-72
2022/09/28 10:37:58;;;;;;;4.20;2.95;;;20.10;99.90;;;;;;5099159;28;20096;-72
2022/09/28 10:40:43;;;;;;;6.30;3.78;;;20.20;99.90;;;;;;5109497;28;20050;-72
2022/09/28 10:43:21;;;;;;;4.80;3.08;;;20.40;99.90;;;;;;5092691;28;20048;-73
2022/09/28 10:45:59;;;;;;;7.60;4.28;;;20.60;99.90;;;;;;5101990;28;20052;-73
2022/09/28 10:48:31;;;;;;;6.80;4.57;;;20.70;99.90;;;;;;5088354;28;20047;-73
2022/09/28 10:51:04;;;;;;;10.35;4.38;;;20.80;99.90;;;;;;5091184;28;20447;-73
2022/09/28 10:53:35;;;;;;;9.85;6.50;;;20.70;99.90;;;;;;5096893;28;20043;-73
2022/09/28 10:56:21;;;;;;;8.18;4.53;;;20.80;99.90;;;;;;5111846;28;20051;-73
2022/09/28 10:58:53;;;;;;;5.70;3.80;;;20.90;99.90;;;;;;5094721;28;20047;-73
2022/09/28 11:01:32;;;;;;;6.35;3.80;;;20.90;99.90;;;;;;5127338;28;20051;-72
2022/09/28 11:04:02;;;;;;;6.60;3.33;;;21.10;99.90;;;;;;5088358;28;20040;-73
2022/09/28 11:06:32;;;;;;;9.02;6.32;;;21.10;99.90;;;;;;5088868;28;20063;-72
2022/09/28 11:09:03;;;;;;;5.05;3.85;;;21.10;99.90;;;;;;5109062;28;20055;-72
2022/09/28 11:11:31;;;;;;;6.18;3.90;;;21.10;99.90;;;;;;5078326;28;20139;-73
2022/09/28 11:14:05;;;;;;;6.68;3.38;;;21.00;99.90;;;;;;5083792;28;20047;-72
2022/09/28 11:16:36;;;;;;;6.15;3.60;;;21.00;99.90;;;;;;5101676;28;20498;-73
2022/09/28 11:19:28;;;;;;;6.18;4.05;;;21.00;99.90;;;;;;5074876;28;20051;-72
2022/09/28 11:21:55;;;;;;;5.22;3.60;;;21.00;99.90;;;;;;5094103;28;20364;-71
2022/09/28 11:24:31;;;;;;;6.00;3.58;;;21.10;99.90;;;;;;5093411;28;20457;-73
2022/09/28 11:27:03;;;;;;;6.57;4.82;;;21.20;99.90;;;;;;5115508;28;20071;-72
2022/09/28 11:29:37;;;;;;;6.38;4.68;;;21.20;99.90;;;;;;5107512;28;20066;-72
2022/09/28 11:32:42;;;;;;;7.10;3.47;;;21.30;99.90;;;;;;5113736;28;20052;-72
2022/09/28 11:35:41;;;;;;;6.82;4.57;;;21.40;99.90;;;;;;5117183;28;20418;-72
2022/09/28 11:38:27;;;;;;;5.75;3.67;;;21.50;99.90;;;;;;5105127;28;20044;-72
2022/09/28 11:41:26;;;;;;;8.50;4.68;;;21.40;99.90;;;;;;5096548;28;20059;-72
2022/09/28 11:44:17;;;;;;;7.00;3.85;;;21.50;99.90;;;;;;5077403;28;20036;-72
2022/09/28 11:46:55;;;;;;;10.32;4.20;;;21.60;99.90;;;;;;5087186;28;20048;-72
2022/09/28 11:49:31;;;;;;;5.85;3.38;;;21.60;99.90;;;;;;5087012;28;20048;-72
2022/09/28 11:52:04;;;;;;;5.18;3.40;;;21.70;99.90;;;;;;5078020;28;20502;-72
2022/09/28 11:54:40;;;;;;;5.32;3.70;;;21.80;99.90;;;;;;5114836;28;20517;-72
2022/09/28 11:57:15;;;;;;;6.93;3.90;;;21.90;99.90;;;;;;5086233;28;20047;-73
2022/09/28 11:59:58;;;;;;;9.38;4.38;;;22.00;99.90;;;;;;5097895;28;20051;-73
2022/09/28 12:02:30;;;;;;;6.70;3.90;;;22.30;99.90;;;;;;5093423;28;20062;-74
2022/09/28 12:05:13;;;;;;;6.80;3.92;;;22.40;99.90;;;;;;5104855;28;20426;-73
2022/09/28 12:07:45;;;;;;;;;;;22.40;99.90;;;;;;5087220;28;20044;-74
2022/09/28 12:10:38;;;;;;;5.85;3.38;;;22.40;99.90;;;;;;5096374;28;19987;-80
2022/09/28 12:13:11;;;;;;;6.05;4.40;;;22.40;99.90;;;;;;5094228;28;20047;-74
2022/09/28 12:15:45;;;;;;;7.68;3.30;;;22.30;99.90;;;;;;5090750;28;20491;-72
2022/09/28 12:18:20;;;;;;;5.47;3.95;;;22.20;99.90;;;;;;5079239;28;20048;-73
2022/09/28 12:20:50;;;;;;;7.20;4.03;;;22.20;99.90;;;;;;5074829;28;20051;-72
2022/09/28 12:23:24;;;;;;;8.18;5.20;;;22.30;99.90;;;;;;5093150;28;20385;-72
2022/09/28 12:25:57;;;;;;;8.13;4.75;;;22.40;99.90;;;;;;5076282;28;20040;-77
2022/09/28 12:28:34;;;;;;;7.85;3.72;;;22.40;99.90;;;;;;5080470;28;20036;-79
2022/09/28 12:31:13;;;;;;;10.63;5.28;;;22.40;99.90;;;;;;5092300;28;20386;-72
2022/09/28 12:33:44;;;;;;;5.55;3.50;;;22.40;99.90;;;;;;5096578;28;20031;-73
2022/09/28 12:36:29;;;;;;;6.50;3.88;;;22.50;99.90;;;;;;5098111;28;20040;-73
2022/09/28 12:39:26;;;;;;;8.73;4.82;;;22.50;99.90;;;;;;5087822;28;20052;-74
2022/09/28 12:42:07;;;;;;;6.72;4.55;;;22.50;99.90;;;;;;5097326;28;20078;-74
2022/09/28 12:44:58;;;;;;;9.65;4.15;;;22.60;99.90;;;;;;5089523;28;20045;-74
2022/09/28 12:47:39;;;;;;;8.25;4.82;;;22.80;99.90;;;;;;5078940;28;20060;-72
2022/09/28 12:50:18;;;;;;;15.05;8.77;;;22.70;99.90;;;;;;5078236;28;20067;-74
2022/09/28 12:53:03;;;;;;;11.98;6.03;;;23.00;99.90;;;;;;5086473;28;20067;-74
2022/09/28 12:55:44;;;;;;;10.60;5.78;;;23.20;99.90;;;;;;5096806;28;20044;-74
2022/09/28 12:58:24;;;;;;;8.05;5.47;;;23.50;99.90;;;;;;5099672;28;20044;-73
2022/09/28 13:01:03;;;;;;;99.63;69.60;;;23.80;99.90;;;;;;5094043;28;20055;-75
2022/09/28 13:04:01;;;;;;;16.80;10.05;;;23.90;99.90;;;;;;5095001;28;20032;-68
2022/09/28 13:06:42;;;;;;;10.77;6.80;;;24.00;99.90;;;;;;5087759;28;20167;-68
2022/09/28 13:09:22;;;;;;;8.52;4.80;;;23.80;99.90;;;;;;5109913;28;20449;-69
2022/09/28 13:12:10;;;;;;;22.58;14.43;;;23.70;99.70;;;;;;5098919;28;20036;-69
2022/09/28 13:15:05;;;;;;;32.47;21.90;;;23.70;99.90;;;;;;5093912;28;20117;-67
2022/09/28 13:17:45;;;;;;;17.75;11.27;;;23.60;99.90;;;;;;5093118;28;20055;-68
2022/09/28 13:20:29;;;;;;;11.23;4.88;;;23.80;99.90;;;;;;5093300;28;20113;-67
2022/09/28 13:23:06;;;;;;;8.25;4.60;;;23.70;99.90;;;;;;5088654;28;20039;-66
2022/09/28 13:25:36;;;;;;;8.98;4.13;;;23.80;99.10;;;;;;5088785;28;20051;-67
2022/09/28 13:28:06;;;;;;;6.45;3.67;;;23.80;98.80;;;;;;5092461;28;20495;-67
2022/09/28 13:30:36;;;;;;;7.13;4.25;;;23.90;98.60;;;;;;5093599;28;20093;-68
2022/09/28 13:33:05;;;;;;;8.13;4.57;;;23.80;98.70;;;;;;5093644;28;20032;-68
2022/09/28 13:35:33;;;;;;;8.43;3.85;;;23.70;98.70;;;;;;5092458;28;20039;-67
2022/09/28 13:38:44;;;;;;;9.00;3.85;;;23.60;98.40;;;;;;5093662;28;20450;-68
2022/09/28 13:41:15;;;;;;;11.15;4.78;;;23.60;98.90;;;;;;5073405;28;20404;-68